sensor_id;sensor_type;location;lat;lon;timestamp;P1;durP1;ratioP1;P2;durP2;ratioP2
48554;SDS011;34336;48.270;16.716;2022-08-30T00:02:18;9.02;;;6.22;;
48554;SDS011;34336;48.270;16.716;2022-08-30T00:04:46;7.70;;;6.07;;
48554;SDS011;34336;48.270;16.716;2022-08-30T00:07:13;8.07;;;5.97;;
48554;SDS011;34336;48.270;16.716;2022-08-30T00:09:41;9.55;;;6.03;;
48554;SDS011;34336;48.270;16.716;2022-08-30T00:12:07;8.80;;;6.43;;
48554;SDS011;34336;48.270;16.716;2022-08-30T00:14:35;11.55;;;6.53;;
48554;SDS011;34336;48.270;16.716;2022-08-30T00:17:02;9.15;;;6.18;;
48554;SDS011;34336;48.270;16.716;2022-08-30T00:19:29;9.88;;;6.13;;
48554;SDS011;34336;48.270;16.716;2022-08-30T00:21:56;9.60;;;5.93;;
48554;SDS011;34336;48.270;16.716;2022-08-30T00:24:23;7.05;;;5.28;;
48554;SDS011;34336;48.270;16.716;2022-08-30T00:26:50;10.25;;;6.65;;
48554;SDS011;34336;48.270;16.716;2022-08-30T00:29:17;9.05;;;6.07;;
48554;SDS011;34336;48.270;16.716;2022-08-30T00:31:43;10.90;;;6.07;;
48554;SDS011;34336;48.270;16.716;2022-08-30T00:34:10;8.50;;;6.00;;
48554;SDS011;34336;48.270;16.716;2022-08-30T00:36:37;9.02;;;6.30;;
48554;SDS011;34336;48.270;16.716;2022-08-30T00:39:04;10.02;;;5.80;;
48554;SDS011;34336;48.270;16.716;2022-08-30T00:41:31;9.88;;;6.30;;
48554;SDS011;34336;48.270;16.716;2022-08-30T00:43:58;8.70;;;5.47;;
48554;SDS011;34336;48.270;16.716;2022-08-30T00:46:26;8.98;;;5.80;;
48554;SDS011;34336;48.270;16.716;2022-08-30T00:48:53;10.85;;;6.20;;
48554;SDS011;34336;48.270;16.716;2022-08-30T00:51:21;6.72;;;5.60;;
48554;SDS011;34336;48.270;16.716;2022-08-30T00:53:50;6.85;;;5.75;;
48554;SDS011;34336;48.270;16.716;2022-08-30T00:56:22;9.85;;;5.80;;
48554;SDS011;34336;48.270;16.716;2022-08-30T00:58:52;6.80;;;5.68;;
48554;SDS011;34336;48.270;16.716;2022-08-30T01:01:21;8.52;;;5.72;;
48554;SDS011;34336;48.270;16.716;2022-08-30T01:03:49;11.60;;;6.43;;
48554;SDS011;34336;48.270;16.716;2022-08-30T01:06:16;10.38;;;6.25;;
48554;SDS011;34336;48.270;16.716;2022-08-30T01:08:44;8.02;;;5.70;;
48554;SDS011;34336;48.270;16.716;2022-08-30T01:11:14;10.15;;;5.40;;
48554;SDS011;34336;48.270;16.716;2022-08-30T01:13:44;7.72;;;5.13;;
48554;SDS011;34336;48.270;16.716;2022-08-30T01:16:14;7.63;;;5.35;;
48554;SDS011;34336;48.270;16.716;2022-08-30T01:18:42;9.95;;;6.35;;
48554;SDS011;34336;48.270;16.716;2022-08-30T01:21:16;9.82;;;6.57;;
48554;SDS011;34336;48.270;16.716;2022-08-30T01:23:50;9.93;;;5.53;;
48554;SDS011;34336;48.270;16.716;2022-08-30T01:26:19;8.88;;;5.55;;
48554;SDS011;34336;48.270;16.716;2022-08-30T01:28:49;6.88;;;5.53;;
48554;SDS011;34336;48.270;16.716;2022-08-30T01:31:21;7.05;;;5.35;;
48554;SDS011;34336;48.270;16.716;2022-08-30T01:33:49;6.53;;;5.22;;
48554;SDS011;34336;48.270;16.716;2022-08-30T01:36:16;8.57;;;5.30;;
48554;SDS011;34336;48.270;16.716;2022-08-30T01:38:47;9.18;;;5.55;;
48554;SDS011;34336;48.270;16.716;2022-08-30T01:41:17;8.57;;;5.50;;
48554;SDS011;34336;48.270;16.716;2022-08-30T01:43:48;9.25;;;5.68;;
48554;SDS011;34336;48.270;16.716;2022-08-30T01:46:17;7.82;;;6.03;;
48554;SDS011;34336;48.270;16.716;2022-08-30T01:48:46;9.60;;;5.72;;
48554;SDS011;34336;48.270;16.716;2022-08-30T01:51:19;10.20;;;6.30;;
48554;SDS011;34336;48.270;16.716;2022-08-30T01:53:47;7.43;;;5.55;;
48554;SDS011;34336;48.270;16.716;2022-08-30T01:56:14;9.60;;;5.57;;
48554;SDS011;34336;48.270;16.716;2022-08-30T01:58:42;10.55;;;5.88;;
48554;SDS011;34336;48.270;16.716;2022-08-30T02:01:10;7.60;;;5.35;;
48554;SDS011;34336;48.270;16.716;2022-08-30T02:03:40;6.60;;;4.97;;
48554;SDS011;34336;48.270;16.716;2022-08-30T02:06:10;8.75;;;5.65;;
48554;SDS011;34336;48.270;16.716;2022-08-30T02:08:40;9.85;;;6.30;;
48554;SDS011;34336;48.270;16.716;2022-08-30T02:11:07;6.95;;;6.03;;
48554;SDS011;34336;48.270;16.716;2022-08-30T02:13:35;7.65;;;5.60;;
48554;SDS011;34336;48.270;16.716;2022-08-30T02:16:06;9.15;;;5.55;;
48554;SDS011;34336;48.270;16.716;2022-08-30T02:18:39;10.93;;;6.03;;
48554;SDS011;34336;48.270;16.716;2022-08-30T02:21:06;9.45;;;6.72;;
48554;SDS011;34336;48.270;16.716;2022-08-30T02:23:34;7.88;;;5.95;;
48554;SDS011;34336;48.270;16.716;2022-08-30T02:26:01;8.32;;;5.57;;
48554;SDS011;34336;48.270;16.716;2022-08-30T02:28:29;9.25;;;5.35;;
48554;SDS011;34336;48.270;16.716;2022-08-30T02:30:56;10.32;;;5.53;;
48554;SDS011;34336;48.270;16.716;2022-08-30T02:33:23;8.15;;;6.13;;
48554;SDS011;34336;48.270;16.716;2022-08-30T02:35:50;8.57;;;5.80;;
48554;SDS011;34336;48.270;16.716;2022-08-30T02:38:17;9.02;;;6.07;;
48554;SDS011;34336;48.270;16.716;2022-08-30T02:40:45;9.38;;;6.03;;
48554;SDS011;34336;48.270;16.716;2022-08-30T02:43:12;7.00;;;6.15;;
48554;SDS011;34336;48.270;16.716;2022-08-30T02:45:39;7.70;;;5.93;;
48554;SDS011;34336;48.270;16.716;2022-08-30T02:48:06;10.30;;;6.43;;
48554;SDS011;34336;48.270;16.716;2022-08-30T02:50:33;10.75;;;6.70;;
48554;SDS011;34336;48.270;16.716;2022-08-30T02:53:00;9.30;;;6.47;;
48554;SDS011;34336;48.270;16.716;2022-08-30T02:55:27;7.63;;;6.22;;
48554;SDS011;34336;48.270;16.716;2022-08-30T02:57:53;7.00;;;5.93;;
48554;SDS011;34336;48.270;16.716;2022-08-30T03:00:20;9.50;;;6.10;;
48554;SDS011;34336;48.270;16.716;2022-08-30T03:02:47;12.10;;;6.78;;
48554;SDS011;34336;48.270;16.716;2022-08-30T03:05:15;8.98;;;6.45;;
48554;SDS011;34336;48.270;16.716;2022-08-30T03:07:43;8.30;;;6.78;;
48554;SDS011;34336;48.270;16.716;2022-08-30T03:10:13;8.38;;;6.43;;
48554;SDS011;34336;48.270;16.716;2022-08-30T03:12:41;8.07;;;6.85;;
48554;SDS011;34336;48.270;16.716;2022-08-30T03:15:09;9.52;;;6.60;;
48554;SDS011;34336;48.270;16.716;2022-08-30T03:17:38;11.35;;;7.57;;
48554;SDS011;34336;48.270;16.716;2022-08-30T03:20:06;9.95;;;7.55;;
48554;SDS011;34336;48.270;16.716;2022-08-30T03:22:34;12.50;;;7.25;;
48554;SDS011;34336;48.270;16.716;2022-08-30T03:25:01;10.52;;;6.72;;
48554;SDS011;34336;48.270;16.716;2022-08-30T03:27:29;12.35;;;6.97;;
48554;SDS011;34336;48.270;16.716;2022-08-30T03:29:56;11.75;;;6.93;;
48554;SDS011;34336;48.270;16.716;2022-08-30T03:32:23;14.82;;;7.50;;
48554;SDS011;34336;48.270;16.716;2022-08-30T03:34:50;12.63;;;7.80;;
48554;SDS011;34336;48.270;16.716;2022-08-30T03:37:17;15.35;;;7.38;;
48554;SDS011;34336;48.270;16.716;2022-08-30T03:39:50;9.23;;;7.03;;
48554;SDS011;34336;48.270;16.716;2022-08-30T03:42:18;10.35;;;7.25;;
48554;SDS011;34336;48.270;16.716;2022-08-30T03:44:46;12.23;;;7.07;;
48554;SDS011;34336;48.270;16.716;2022-08-30T03:47:13;11.18;;;6.82;;
48554;SDS011;34336;48.270;16.716;2022-08-30T03:49:40;9.55;;;7.43;;
48554;SDS011;34336;48.270;16.716;2022-08-30T03:52:07;10.45;;;7.10;;
48554;SDS011;34336;48.270;16.716;2022-08-30T03:54:34;10.88;;;7.13;;
48554;SDS011;34336;48.270;16.716;2022-08-30T03:57:03;12.43;;;7.00;;
48554;SDS011;34336;48.270;16.716;2022-08-30T03:59:30;10.07;;;6.88;;
48554;SDS011;34336;48.270;16.716;2022-08-30T04:01:57;9.27;;;6.90;;
48554;SDS011;34336;48.270;16.716;2022-08-30T04:04:24;9.95;;;7.50;;
48554;SDS011;34336;48.270;16.716;2022-08-30T04:06:51;13.52;;;7.50;;
48554;SDS011;34336;48.270;16.716;2022-08-30T04:09:18;14.18;;;8.05;;
48554;SDS011;34336;48.270;16.716;2022-08-30T04:11:45;13.02;;;7.55;;
48554;SDS011;34336;48.270;16.716;2022-08-30T04:14:12;12.25;;;7.70;;
48554;SDS011;34336;48.270;16.716;2022-08-30T04:16:39;15.25;;;7.97;;
48554;SDS011;34336;48.270;16.716;2022-08-30T04:19:06;11.02;;;7.75;;
48554;SDS011;34336;48.270;16.716;2022-08-30T04:21:33;12.07;;;7.90;;
48554;SDS011;34336;48.270;16.716;2022-08-30T04:24:08;10.00;;;7.30;;
48554;SDS011;34336;48.270;16.716;2022-08-30T04:26:34;12.00;;;7.85;;
48554;SDS011;34336;48.270;16.716;2022-08-30T04:29:02;9.45;;;7.80;;
48554;SDS011;34336;48.270;16.716;2022-08-30T04:31:29;8.43;;;7.22;;
48554;SDS011;34336;48.270;16.716;2022-08-30T04:33:56;11.30;;;7.75;;
48554;SDS011;34336;48.270;16.716;2022-08-30T04:36:23;9.70;;;7.30;;
48554;SDS011;34336;48.270;16.716;2022-08-30T04:38:50;11.80;;;7.38;;
48554;SDS011;34336;48.270;16.716;2022-08-30T04:41:17;10.77;;;6.88;;
48554;SDS011;34336;48.270;16.716;2022-08-30T04:43:46;8.48;;;6.65;;
48554;SDS011;34336;48.270;16.716;2022-08-30T04:46:17;9.85;;;5.78;;
48554;SDS011;34336;48.270;16.716;2022-08-30T04:48:45;11.40;;;5.90;;
48554;SDS011;34336;48.270;16.716;2022-08-30T04:51:13;10.55;;;5.90;;
48554;SDS011;34336;48.270;16.716;2022-08-30T04:53:42;10.25;;;5.40;;
48554;SDS011;34336;48.270;16.716;2022-08-30T04:56:10;10.48;;;6.05;;
48554;SDS011;34336;48.270;16.716;2022-08-30T04:58:43;9.55;;;5.55;;
48554;SDS011;34336;48.270;16.716;2022-08-30T05:01:16;9.93;;;4.65;;
48554;SDS011;34336;48.270;16.716;2022-08-30T05:03:49;11.18;;;4.80;;
48554;SDS011;34336;48.270;16.716;2022-08-30T05:06:17;8.60;;;4.60;;
48554;SDS011;34336;48.270;16.716;2022-08-30T05:08:44;10.52;;;4.80;;
48554;SDS011;34336;48.270;16.716;2022-08-30T05:11:12;7.47;;;4.20;;
48554;SDS011;34336;48.270;16.716;2022-08-30T05:13:40;8.55;;;4.43;;
48554;SDS011;34336;48.270;16.716;2022-08-30T05:16:08;6.85;;;4.28;;
48554;SDS011;34336;48.270;16.716;2022-08-30T05:18:35;6.95;;;4.55;;
48554;SDS011;34336;48.270;16.716;2022-08-30T05:21:06;7.53;;;4.28;;
48554;SDS011;34336;48.270;16.716;2022-08-30T05:23:36;6.60;;;4.18;;
48554;SDS011;34336;48.270;16.716;2022-08-30T05:26:09;7.20;;;4.50;;
48554;SDS011;34336;48.270;16.716;2022-08-30T05:28:38;8.15;;;4.20;;
48554;SDS011;34336;48.270;16.716;2022-08-30T05:31:21;7.13;;;4.32;;
48554;SDS011;34336;48.270;16.716;2022-08-30T05:33:50;8.00;;;4.05;;
48554;SDS011;34336;48.270;16.716;2022-08-30T05:36:20;7.80;;;4.60;;
48554;SDS011;34336;48.270;16.716;2022-08-30T05:38:49;8.15;;;4.63;;
48554;SDS011;34336;48.270;16.716;2022-08-30T05:41:20;8.18;;;4.22;;
48554;SDS011;34336;48.270;16.716;2022-08-30T05:43:53;7.07;;;4.35;;
48554;SDS011;34336;48.270;16.716;2022-08-30T05:46:22;9.70;;;5.25;;
48554;SDS011;34336;48.270;16.716;2022-08-30T05:48:49;8.05;;;4.43;;
48554;SDS011;34336;48.270;16.716;2022-08-30T05:51:21;10.07;;;4.55;;
48554;SDS011;34336;48.270;16.716;2022-08-30T05:53:50;9.18;;;4.63;;
48554;SDS011;34336;48.270;16.716;2022-08-30T05:56:19;7.85;;;4.07;;
48554;SDS011;34336;48.270;16.716;2022-08-30T05:58:51;9.77;;;4.50;;
48554;SDS011;34336;48.270;16.716;2022-08-30T06:01:37;6.32;;;4.20;;
48554;SDS011;34336;48.270;16.716;2022-08-30T06:04:09;8.07;;;4.57;;
48554;SDS011;34336;48.270;16.716;2022-08-30T06:06:38;8.27;;;4.63;;
48554;SDS011;34336;48.270;16.716;2022-08-30T06:09:08;9.48;;;4.30;;
48554;SDS011;34336;48.270;16.716;2022-08-30T06:11:37;7.22;;;4.00;;
48554;SDS011;34336;48.270;16.716;2022-08-30T06:14:04;7.07;;;4.50;;
48554;SDS011;34336;48.270;16.716;2022-08-30T06:16:31;7.55;;;4.50;;
48554;SDS011;34336;48.270;16.716;2022-08-30T06:18:59;7.32;;;4.22;;
48554;SDS011;34336;48.270;16.716;2022-08-30T06:21:27;8.20;;;4.40;;
48554;SDS011;34336;48.270;16.716;2022-08-30T06:23:55;7.45;;;4.55;;
48554;SDS011;34336;48.270;16.716;2022-08-30T06:26:24;7.60;;;4.50;;
48554;SDS011;34336;48.270;16.716;2022-08-30T06:28:52;7.35;;;3.97;;
48554;SDS011;34336;48.270;16.716;2022-08-30T06:31:20;6.40;;;4.10;;
48554;SDS011;34336;48.270;16.716;2022-08-30T06:33:49;7.25;;;3.95;;
48554;SDS011;34336;48.270;16.716;2022-08-30T06:36:18;6.65;;;4.20;;
48554;SDS011;34336;48.270;16.716;2022-08-30T06:38:48;7.18;;;4.05;;
48554;SDS011;34336;48.270;16.716;2022-08-30T06:41:18;6.32;;;3.63;;
48554;SDS011;34336;48.270;16.716;2022-08-30T06:43:47;7.45;;;3.85;;
48554;SDS011;34336;48.270;16.716;2022-08-30T06:46:16;6.65;;;3.70;;
48554;SDS011;34336;48.270;16.716;2022-08-30T06:48:46;7.38;;;3.55;;
48554;SDS011;34336;48.270;16.716;2022-08-30T06:51:14;10.93;;;4.05;;
48554;SDS011;34336;48.270;16.716;2022-08-30T06:53:45;6.43;;;3.60;;
48554;SDS011;34336;48.270;16.716;2022-08-30T06:56:12;6.57;;;3.60;;
48554;SDS011;34336;48.270;16.716;2022-08-30T06:58:42;12.35;;;4.30;;
48554;SDS011;34336;48.270;16.716;2022-08-30T07:01:10;5.75;;;3.33;;
48554;SDS011;34336;48.270;16.716;2022-08-30T07:03:39;7.75;;;4.00;;
48554;SDS011;34336;48.270;16.716;2022-08-30T07:06:06;7.88;;;3.80;;
48554;SDS011;34336;48.270;16.716;2022-08-30T07:08:33;5.72;;;4.05;;
48554;SDS011;34336;48.270;16.716;2022-08-30T07:11:01;7.07;;;3.85;;
48554;SDS011;34336;48.270;16.716;2022-08-30T07:13:27;7.88;;;3.47;;
48554;SDS011;34336;48.270;16.716;2022-08-30T07:15:54;10.95;;;7.20;;
48554;SDS011;34336;48.270;16.716;2022-08-30T07:18:21;8.40;;;5.55;;
48554;SDS011;34336;48.270;16.716;2022-08-30T07:21:09;6.60;;;4.05;;
48554;SDS011;34336;48.270;16.716;2022-08-30T07:23:37;5.97;;;3.35;;
48554;SDS011;34336;48.270;16.716;2022-08-30T07:26:05;7.38;;;3.78;;
48554;SDS011;34336;48.270;16.716;2022-08-30T07:28:35;7.40;;;3.90;;
48554;SDS011;34336;48.270;16.716;2022-08-30T07:31:03;5.82;;;3.65;;
48554;SDS011;34336;48.270;16.716;2022-08-30T07:33:31;8.60;;;3.25;;
48554;SDS011;34336;48.270;16.716;2022-08-30T07:35:59;6.28;;;3.42;;
48554;SDS011;34336;48.270;16.716;2022-08-30T07:38:27;8.15;;;3.40;;
48554;SDS011;34336;48.270;16.716;2022-08-30T07:40:55;8.40;;;3.25;;
48554;SDS011;34336;48.270;16.716;2022-08-30T07:43:30;5.70;;;3.37;;
48554;SDS011;34336;48.270;16.716;2022-08-30T07:46:03;7.13;;;3.63;;
48554;SDS011;34336;48.270;16.716;2022-08-30T07:48:31;6.43;;;3.70;;
48554;SDS011;34336;48.270;16.716;2022-08-30T07:51:00;6.80;;;3.17;;
48554;SDS011;34336;48.270;16.716;2022-08-30T07:53:30;4.68;;;2.88;;
48554;SDS011;34336;48.270;16.716;2022-08-30T07:55:57;5.32;;;2.90;;
48554;SDS011;34336;48.270;16.716;2022-08-30T07:58:24;10.27;;;2.97;;
48554;SDS011;34336;48.270;16.716;2022-08-30T08:00:51;5.68;;;3.10;;
48554;SDS011;34336;48.270;16.716;2022-08-30T08:03:18;5.82;;;2.63;;
48554;SDS011;34336;48.270;16.716;2022-08-30T08:05:45;5.55;;;3.13;;
48554;SDS011;34336;48.270;16.716;2022-08-30T08:08:12;7.43;;;3.60;;
48554;SDS011;34336;48.270;16.716;2022-08-30T08:10:40;5.55;;;3.45;;
48554;SDS011;34336;48.270;16.716;2022-08-30T08:13:08;6.45;;;2.90;;
48554;SDS011;34336;48.270;16.716;2022-08-30T08:15:35;7.22;;;3.58;;
48554;SDS011;34336;48.270;16.716;2022-08-30T08:18:03;5.85;;;3.20;;
48554;SDS011;34336;48.270;16.716;2022-08-30T08:20:32;6.90;;;3.33;;
48554;SDS011;34336;48.270;16.716;2022-08-30T08:22:59;5.85;;;3.00;;
48554;SDS011;34336;48.270;16.716;2022-08-30T08:25:26;9.43;;;3.38;;
48554;SDS011;34336;48.270;16.716;2022-08-30T08:27:55;7.28;;;3.13;;
48554;SDS011;34336;48.270;16.716;2022-08-30T08:30:22;4.97;;;3.15;;
48554;SDS011;34336;48.270;16.716;2022-08-30T08:32:50;6.22;;;2.97;;
48554;SDS011;34336;48.270;16.716;2022-08-30T08:35:17;8.82;;;3.47;;
48554;SDS011;34336;48.270;16.716;2022-08-30T08:37:45;8.50;;;3.17;;
48554;SDS011;34336;48.270;16.716;2022-08-30T08:40:13;6.03;;;3.00;;
48554;SDS011;34336;48.270;16.716;2022-08-30T08:48:23;5.13;;;2.80;;
48554;SDS011;34336;48.270;16.716;2022-08-30T08:51:18;7.13;;;3.22;;
48554;SDS011;34336;48.270;16.716;2022-08-30T08:56:39;5.20;;;2.78;;
48554;SDS011;34336;48.270;16.716;2022-08-30T08:59:07;4.55;;;2.35;;
48554;SDS011;34336;48.270;16.716;2022-08-30T09:01:36;7.82;;;3.60;;
48554;SDS011;34336;48.270;16.716;2022-08-30T09:04:07;5.93;;;3.00;;
48554;SDS011;34336;48.270;16.716;2022-08-30T09:09:27;7.13;;;2.67;;
48554;SDS011;34336;48.270;16.716;2022-08-30T09:12:13;6.07;;;2.65;;
48554;SDS011;34336;48.270;16.716;2022-08-30T09:14:42;8.02;;;3.10;;
48554;SDS011;34336;48.270;16.716;2022-08-30T09:17:13;6.88;;;2.60;;
48554;SDS011;34336;48.270;16.716;2022-08-30T09:19:42;5.18;;;3.28;;
48554;SDS011;34336;48.270;16.716;2022-08-30T09:24:54;5.65;;;3.00;;
48554;SDS011;34336;48.270;16.716;2022-08-30T09:27:30;8.98;;;2.70;;
48554;SDS011;34336;48.270;16.716;2022-08-30T09:30:03;5.65;;;3.00;;
48554;SDS011;34336;48.270;16.716;2022-08-30T09:32:32;6.28;;;2.55;;
48554;SDS011;34336;48.270;16.716;2022-08-30T09:40:50;4.25;;;2.83;;
48554;SDS011;34336;48.270;16.716;2022-08-30T09:43:26;5.38;;;2.42;;
48554;SDS011;34336;48.270;16.716;2022-08-30T09:48:28;4.65;;;2.35;;
48554;SDS011;34336;48.270;16.716;2022-08-30T09:53:43;5.00;;;2.17;;
48554;SDS011;34336;48.270;16.716;2022-08-30T09:59:34;5.20;;;2.40;;
48554;SDS011;34336;48.270;16.716;2022-08-30T10:14:03;6.47;;;2.45;;
48554;SDS011;34336;48.270;16.716;2022-08-30T10:19:30;4.28;;;2.00;;
48554;SDS011;34336;48.270;16.716;2022-08-30T10:22:13;6.43;;;2.10;;
48554;SDS011;34336;48.270;16.716;2022-08-30T10:25:15;4.93;;;2.40;;
48554;SDS011;34336;48.270;16.716;2022-08-30T10:30:37;5.35;;;2.33;;
48554;SDS011;34336;48.270;16.716;2022-08-30T10:33:13;3.15;;;2.00;;
48554;SDS011;34336;48.270;16.716;2022-08-30T10:36:09;5.10;;;2.22;;
48554;SDS011;34336;48.270;16.716;2022-08-30T10:38:39;6.90;;;2.30;;
48554;SDS011;34336;48.270;16.716;2022-08-30T10:49:24;4.45;;;2.05;;
48554;SDS011;34336;48.270;16.716;2022-08-30T10:57:20;3.45;;;1.70;;
48554;SDS011;34336;48.270;16.716;2022-08-30T10:59:50;3.47;;;2.00;;
48554;SDS011;34336;48.270;16.716;2022-08-30T11:14:06;4.13;;;1.83;;
48554;SDS011;34336;48.270;16.716;2022-08-30T11:16:41;3.50;;;2.10;;
48554;SDS011;34336;48.270;16.716;2022-08-30T11:19:15;3.20;;;1.83;;
48554;SDS011;34336;48.270;16.716;2022-08-30T11:22:13;4.38;;;2.20;;
48554;SDS011;34336;48.270;16.716;2022-08-30T11:27:54;5.72;;;2.70;;
48554;SDS011;34336;48.270;16.716;2022-08-30T11:33:00;2.70;;;1.85;;
48554;SDS011;34336;48.270;16.716;2022-08-30T11:35:38;4.30;;;2.10;;
48554;SDS011;34336;48.270;16.716;2022-08-30T11:40:55;4.05;;;2.03;;
48554;SDS011;34336;48.270;16.716;2022-08-30T11:48:46;3.40;;;2.17;;
48554;SDS011;34336;48.270;16.716;2022-08-30T11:56:21;4.20;;;1.90;;
48554;SDS011;34336;48.270;16.716;2022-08-30T11:58:58;4.47;;;2.03;;
48554;SDS011;34336;48.270;16.716;2022-08-30T12:01:31;5.22;;;2.47;;
48554;SDS011;34336;48.270;16.716;2022-08-30T12:14:37;2.47;;;1.52;;
48554;SDS011;34336;48.270;16.716;2022-08-30T12:17:15;4.03;;;2.13;;
48554;SDS011;34336;48.270;16.716;2022-08-30T12:20:26;6.78;;;2.95;;
48554;SDS011;34336;48.270;16.716;2022-08-30T12:25:45;5.78;;;2.08;;
48554;SDS011;34336;48.270;16.716;2022-08-30T12:28:14;3.88;;;2.10;;
48554;SDS011;34336;48.270;16.716;2022-08-30T12:30:49;3.30;;;2.00;;
48554;SDS011;34336;48.270;16.716;2022-08-30T12:33:37;4.43;;;2.17;;
48554;SDS011;34336;48.270;16.716;2022-08-30T12:36:12;3.13;;;2.08;;
48554;SDS011;34336;48.270;16.716;2022-08-30T12:38:40;3.75;;;2.13;;
48554;SDS011;34336;48.270;16.716;2022-08-30T12:41:07;4.75;;;2.10;;
48554;SDS011;34336;48.270;16.716;2022-08-30T12:43:48;4.65;;;2.03;;
48554;SDS011;34336;48.270;16.716;2022-08-30T12:46:17;3.00;;;2.10;;
48554;SDS011;34336;48.270;16.716;2022-08-30T12:48:47;3.53;;;2.22;;
48554;SDS011;34336;48.270;16.716;2022-08-30T12:51:29;3.22;;;2.00;;
48554;SDS011;34336;48.270;16.716;2022-08-30T12:54:22;4.13;;;1.95;;
48554;SDS011;34336;48.270;16.716;2022-08-30T12:57:02;6.93;;;2.72;;
48554;SDS011;34336;48.270;16.716;2022-08-30T12:59:51;3.78;;;2.13;;
48554;SDS011;34336;48.270;16.716;2022-08-30T13:02:40;3.53;;;2.10;;
48554;SDS011;34336;48.270;16.716;2022-08-30T13:08:20;3.55;;;1.98;;
48554;SDS011;34336;48.270;16.716;2022-08-30T13:11:08;4.50;;;2.03;;
48554;SDS011;34336;48.270;16.716;2022-08-30T13:13:39;2.63;;;1.60;;
48554;SDS011;34336;48.270;16.716;2022-08-30T13:19:14;4.65;;;2.25;;
48554;SDS011;34336;48.270;16.716;2022-08-30T13:22:00;4.22;;;2.30;;
48554;SDS011;34336;48.270;16.716;2022-08-30T13:24:27;4.43;;;2.20;;
48554;SDS011;34336;48.270;16.716;2022-08-30T13:26:55;4.25;;;1.98;;
48554;SDS011;34336;48.270;16.716;2022-08-30T13:29:27;3.85;;;2.17;;
48554;SDS011;34336;48.270;16.716;2022-08-30T13:31:54;3.67;;;1.85;;
48554;SDS011;34336;48.270;16.716;2022-08-30T13:34:22;4.03;;;2.20;;
48554;SDS011;34336;48.270;16.716;2022-08-30T13:36:49;6.47;;;2.65;;
48554;SDS011;34336;48.270;16.716;2022-08-30T13:39:19;6.50;;;2.40;;
48554;SDS011;34336;48.270;16.716;2022-08-30T13:41:47;5.57;;;2.45;;
48554;SDS011;34336;48.270;16.716;2022-08-30T13:44:14;3.85;;;2.10;;
48554;SDS011;34336;48.270;16.716;2022-08-30T13:46:42;6.15;;;2.72;;
48554;SDS011;34336;48.270;16.716;2022-08-30T13:49:21;4.22;;;2.53;;
48554;SDS011;34336;48.270;16.716;2022-08-30T13:52:11;5.32;;;2.70;;
48554;SDS011;34336;48.270;16.716;2022-08-30T13:54:49;4.07;;;2.45;;
48554;SDS011;34336;48.270;16.716;2022-08-30T13:57:17;3.90;;;2.58;;
48554;SDS011;34336;48.270;16.716;2022-08-30T14:00:09;4.00;;;2.90;;
48554;SDS011;34336;48.270;16.716;2022-08-30T14:02:41;5.07;;;2.65;;
48554;SDS011;34336;48.270;16.716;2022-08-30T14:05:15;8.25;;;2.97;;
48554;SDS011;34336;48.270;16.716;2022-08-30T14:08:02;5.70;;;2.38;;
48554;SDS011;34336;48.270;16.716;2022-08-30T14:10:31;5.10;;;2.58;;
48554;SDS011;34336;48.270;16.716;2022-08-30T14:13:01;4.28;;;2.67;;
48554;SDS011;34336;48.270;16.716;2022-08-30T14:15:43;3.85;;;2.42;;
48554;SDS011;34336;48.270;16.716;2022-08-30T14:18:11;4.28;;;2.83;;
48554;SDS011;34336;48.270;16.716;2022-08-30T14:20:43;4.28;;;2.47;;
48554;SDS011;34336;48.270;16.716;2022-08-30T14:23:10;4.88;;;2.40;;
48554;SDS011;34336;48.270;16.716;2022-08-30T14:25:37;4.53;;;2.33;;
48554;SDS011;34336;48.270;16.716;2022-08-30T14:28:06;8.07;;;2.50;;
48554;SDS011;34336;48.270;16.716;2022-08-30T14:30:35;4.47;;;2.13;;
48554;SDS011;34336;48.270;16.716;2022-08-30T14:33:02;5.05;;;2.38;;
48554;SDS011;34336;48.270;16.716;2022-08-30T14:35:29;5.05;;;2.28;;
48554;SDS011;34336;48.270;16.716;2022-08-30T14:37:56;5.95;;;2.60;;
48554;SDS011;34336;48.270;16.716;2022-08-30T14:40:24;4.55;;;2.20;;
48554;SDS011;34336;48.270;16.716;2022-08-30T14:42:51;4.43;;;2.72;;
48554;SDS011;34336;48.270;16.716;2022-08-30T14:45:18;3.83;;;2.40;;
48554;SDS011;34336;48.270;16.716;2022-08-30T14:47:45;5.57;;;2.38;;
48554;SDS011;34336;48.270;16.716;2022-08-30T14:50:12;3.75;;;2.15;;
48554;SDS011;34336;48.270;16.716;2022-08-30T14:52:39;4.13;;;2.40;;
48554;SDS011;34336;48.270;16.716;2022-08-30T14:55:10;5.47;;;2.60;;
48554;SDS011;34336;48.270;16.716;2022-08-30T14:57:38;3.80;;;2.20;;
48554;SDS011;34336;48.270;16.716;2022-08-30T15:00:05;4.32;;;2.15;;
48554;SDS011;34336;48.270;16.716;2022-08-30T15:02:34;6.15;;;2.10;;
48554;SDS011;34336;48.270;16.716;2022-08-30T15:05:01;5.53;;;2.50;;
48554;SDS011;34336;48.270;16.716;2022-08-30T15:07:32;5.45;;;2.38;;
48554;SDS011;34336;48.270;16.716;2022-08-30T15:09:59;7.32;;;2.88;;
48554;SDS011;34336;48.270;16.716;2022-08-30T15:12:26;4.97;;;2.45;;
48554;SDS011;34336;48.270;16.716;2022-08-30T15:14:54;4.03;;;2.55;;
48554;SDS011;34336;48.270;16.716;2022-08-30T15:17:21;5.80;;;2.60;;
48554;SDS011;34336;48.270;16.716;2022-08-30T15:19:48;7.07;;;2.63;;
48554;SDS011;34336;48.270;16.716;2022-08-30T15:22:15;4.75;;;2.33;;
48554;SDS011;34336;48.270;16.716;2022-08-30T15:24:42;5.00;;;2.45;;
48554;SDS011;34336;48.270;16.716;2022-08-30T15:29:41;5.63;;;2.65;;
48554;SDS011;34336;48.270;16.716;2022-08-30T15:32:08;3.55;;;2.30;;
48554;SDS011;34336;48.270;16.716;2022-08-30T15:34:34;4.57;;;2.65;;
48554;SDS011;34336;48.270;16.716;2022-08-30T15:37:01;6.18;;;2.70;;
48554;SDS011;34336;48.270;16.716;2022-08-30T15:39:30;4.95;;;2.60;;
48554;SDS011;34336;48.270;16.716;2022-08-30T15:41:57;4.78;;;2.80;;
48554;SDS011;34336;48.270;16.716;2022-08-30T15:44:28;3.75;;;2.45;;
48554;SDS011;34336;48.270;16.716;2022-08-30T15:47:00;6.10;;;2.55;;
48554;SDS011;34336;48.270;16.716;2022-08-30T15:49:27;4.03;;;2.47;;
48554;SDS011;34336;48.270;16.716;2022-08-30T15:51:54;5.35;;;2.70;;
48554;SDS011;34336;48.270;16.716;2022-08-30T15:54:26;3.95;;;2.70;;
48554;SDS011;34336;48.270;16.716;2022-08-30T15:56:53;6.45;;;3.53;;
48554;SDS011;34336;48.270;16.716;2022-08-30T15:59:28;4.15;;;2.40;;
48554;SDS011;34336;48.270;16.716;2022-08-30T16:01:56;5.38;;;2.70;;
48554;SDS011;34336;48.270;16.716;2022-08-30T16:04:24;4.35;;;2.60;;
48554;SDS011;34336;48.270;16.716;2022-08-30T16:06:51;4.72;;;2.70;;
48554;SDS011;34336;48.270;16.716;2022-08-30T16:09:19;3.17;;;2.60;;
48554;SDS011;34336;48.270;16.716;2022-08-30T16:11:46;5.40;;;2.30;;
48554;SDS011;34336;48.270;16.716;2022-08-30T16:14:13;4.72;;;2.60;;
48554;SDS011;34336;48.270;16.716;2022-08-30T16:16:40;6.28;;;2.38;;
48554;SDS011;34336;48.270;16.716;2022-08-30T16:19:07;4.80;;;2.40;;
48554;SDS011;34336;48.270;16.716;2022-08-30T16:21:35;6.13;;;2.58;;
48554;SDS011;34336;48.270;16.716;2022-08-30T16:24:03;4.22;;;2.33;;
48554;SDS011;34336;48.270;16.716;2022-08-30T16:26:32;12.77;;;9.07;;
48554;SDS011;34336;48.270;16.716;2022-08-30T16:29:00;4.90;;;3.25;;
48554;SDS011;34336;48.270;16.716;2022-08-30T16:31:32;3.83;;;2.30;;
48554;SDS011;34336;48.270;16.716;2022-08-30T16:34:00;3.38;;;2.30;;
48554;SDS011;34336;48.270;16.716;2022-08-30T16:36:30;4.60;;;2.40;;
48554;SDS011;34336;48.270;16.716;2022-08-30T16:38:58;5.50;;;2.63;;
48554;SDS011;34336;48.270;16.716;2022-08-30T16:41:25;5.78;;;2.55;;
48554;SDS011;34336;48.270;16.716;2022-08-30T16:43:52;5.63;;;2.80;;